Time;durP1;ratioP1;P1;durP2;ratioP2;P2;SDS_P1;SDS_P2;PMS_P1;PMS_P2;Temp;Humidity;BMP_temperature;BMP_pressure;BME280_temperature;BME280_humidity;BME280_pressure;Samples;Min_cycle;Max_cycle;Signal;HPM_P1;HPM_P2
2021/12/16 00:09:11;;;;;;;;;14.50;12.75;;;;;20.97;40.49;103143.03;5079606;27;51341;-47
2021/12/16 00:33:16;;;;;;;;;11.00;10.75;;;;;20.82;40.87;103147.47;5085142;27;51050;-43
2021/12/16 00:35:45;;;;;;;;;13.00;9.50;;;;;20.83;40.44;103148.31;5098536;27;51010;-44
2021/12/16 00:38:11;;;;;;;;;12.25;11.00;;;;;20.81;40.89;103144.88;5092027;27;51326;-43
2021/12/16 00:40:40;;;;;;;;;13.25;12.00;;;;;20.82;40.88;103146.59;5089434;27;50988;-43
2021/12/16 00:43:18;;;;;;;;;11.25;11.25;;;;;20.79;41.02;103141.44;5089785;27;51239;-43
2021/12/16 00:56:04;;;;;;;;;12.25;10.75;;;;;20.73;40.65;103138.31;5086572;27;51131;-43
2021/12/16 00:58:38;;;;;;;;;14.25;11.00;;;;;20.72;40.45;103130.22;5078952;27;51382;-45
2021/12/16 01:57:18;;;;;;;;;10.25;8.25;;;;;20.55;40.91;103148.63;5088936;27;51215;-43
2021/12/16 01:59:41;;;;;;;;;9.75;8.75;;;;;20.53;41.17;103147.94;5081447;27;51071;-44
2021/12/16 02:10:27;;;;;;;;;8.75;7.50;;;;;20.50;40.94;103145.50;5084979;27;51336;-43
2021/12/16 02:13:29;;;;;;;;;8.00;8.00;;;;;20.49;40.83;103148.41;5086046;27;51320;-50
2021/12/16 02:37:30;;;;;;;;;10.00;8.00;;;;;20.41;41.12;103147.31;5087794;27;51128;-45
2021/12/16 02:39:56;;;;;;;;;8.25;8.00;;;;;20.42;41.06;103146.31;5086430;27;51289;-44
2021/12/16 02:42:34;;;;;;;;;6.25;6.25;;;;;20.42;41.01;103148.19;5083236;27;51353;-41
2021/12/16 02:50:19;;;;;;;;;11.25;9.00;;;;;20.39;41.41;103146.63;5087821;27;51076;-42
2021/12/16 02:52:44;;;;;;;;;10.00;8.25;;;;;20.39;41.06;103143.88;5083902;27;51119;-43
2021/12/16 02:55:12;;;;;;;;;8.00;7.25;;;;;20.39;41.14;103156.78;5102739;27;51222;-42
2021/12/16 02:57:48;;;;;;;;;9.00;8.75;;;;;20.37;41.35;103148.69;5108977;27;51209;-42
2021/12/16 03:00:15;;;;;;;;;11.75;9.25;;;;;20.37;40.88;103148.69;5080074;27;51163;-43
2021/12/16 03:02:44;;;;;;;;;12.50;9.25;;;;;20.38;40.92;103149.56;5081850;27;51043;-44
2021/12/16 03:05:11;;;;;;;;;7.50;7.50;;;;;20.37;40.76;103147.84;5084742;27;51246;-44
2021/12/16 03:07:36;;;;;;;;;8.25;7.75;;;;;20.37;40.86;103145.94;5090002;27;51406;-52
2021/12/16 03:13:36;;;;;;;;;8.50;7.50;;;;;20.34;41.29;103143.53;5081919;27;51175;-46
2021/12/16 03:20:55;;;;;;;;;6.50;6.50;;;;;20.33;41.34;103154.72;5087679;27;51109;-44
2021/12/16 03:23:50;;;;;;;;;8.75;7.75;;;;;20.33;41.12;103157.47;5081902;27;51034;-44
2021/12/16 03:37:12;;;;;;;;;9.00;7.25;;;;;20.30;41.05;103149.50;5089536;27;51125;-44
2021/12/16 03:39:39;;;;;;;;;7.25;7.25;;;;;20.29;41.22;103153.31;5080429;22;54293;-56
2021/12/16 03:42:05;;;;;;;;;8.25;5.50;;;;;20.29;40.90;103162.41;5036602;28;51395;-56
2021/12/16 03:44:48;;;;;;;;;9.50;7.00;;;;;20.29;41.18;103156.06;5036726;28;51203;-56
2021/12/16 03:47:14;;;;;;;;;7.25;7.00;;;;;20.28;41.41;103154.34;5031488;28;50963;-55
2021/12/16 03:49:40;;;;;;;;;7.25;6.00;;;;;20.27;41.30;103152.59;5032811;28;53408;-56
2021/12/16 03:52:08;;;;;;;;;7.00;7.00;;;;;20.27;41.21;103158.97;5023608;28;51104;-56
2021/12/16 03:54:49;;;;;;;;;11.50;9.25;;;;;20.26;41.18;103148.13;5006347;28;51208;-55
2021/12/16 03:57:18;;;;;;;;;10.00;8.50;;;;;20.26;40.98;103151.75;4998628;28;51224;-56
2021/12/16 03:59:44;;;;;;;;;8.00;8.00;;;;;20.26;41.32;103160.00;5012080;28;51999;-55
2021/12/16 04:02:21;;;;;;;;;7.00;7.00;;;;;20.25;41.43;103160.19;5006113;28;51576;-54
2021/12/16 04:04:51;;;;;;;;;10.50;8.75;;;;;20.24;41.25;103156.56;5018433;28;51196;-56
2021/12/16 04:07:18;;;;;;;;;8.50;8.50;;;;;20.24;41.40;103150.19;5019160;28;51245;-56
2021/12/16 04:09:44;;;;;;;;;8.00;8.00;;;;;20.22;41.56;103157.72;5006247;28;51154;-56
2021/12/16 04:12:12;;;;;;;;;8.75;8.00;;;;;20.24;41.05;103172.22;5012387;28;51155;-54
2021/12/16 04:14:40;;;;;;;;;12.25;8.25;;;;;20.23;41.43;103159.47;5016202;28;51005;-55
2021/12/16 04:17:07;;;;;;;;;7.00;7.00;;;;;20.22;41.58;103157.72;5024535;28;51309;-56
2021/12/16 04:19:34;;;;;;;;;10.50;9.50;;;;;20.22;41.40;103163.22;5006363;28;51187;-54
2021/12/16 04:22:16;;;;;;;;;7.00;7.00;;;;;20.20;41.45;103157.91;5008913;28;51418;-54
2021/12/16 04:24:42;;;;;;;;;8.50;8.50;;;;;20.19;41.33;103159.78;5000535;28;51213;-56
2021/12/16 04:27:08;;;;;;;;;11.25;11.25;;;;;20.19;41.17;103165.28;5013388;28;51261;-56
2021/12/16 04:29:34;;;;;;;;;10.25;9.75;;;;;20.19;41.02;103162.53;5014167;28;51250;-56
2021/12/16 04:32:01;;;;;;;;;9.50;9.50;;;;;20.18;41.29;103155.31;5016840;28;51074;-55
2021/12/16 04:34:26;;;;;;;;;6.75;6.50;;;;;20.18;41.40;103166.31;5003946;28;51114;-56
2021/12/16 04:36:53;;;;;;;;;9.00;7.25;;;;;20.18;41.25;103168.22;5005913;28;51149;-56
2021/12/16 04:39:27;;;;;;;;;8.50;8.00;;;;;20.16;41.34;103176.63;5012241;28;52052;-56
2021/12/16 04:41:55;;;;;;;;;11.50;11.50;;;;;20.17;41.36;103175.63;5010401;28;51057;-56
2021/12/16 04:44:24;;;;;;;;;10.75;9.75;;;;;20.18;41.71;103179.22;5000214;28;51070;-54
2021/12/16 04:46:51;;;;;;;;;9.75;8.50;;;;;20.16;41.15;103179.41;5023457;28;51320;-54
2021/12/16 04:49:18;;;;;;;;;9.00;8.25;;;;;20.15;41.45;103165.81;5015505;28;51125;-55
2021/12/16 04:51:47;;;;;;;;;10.25;9.25;;;;;20.15;41.18;103179.56;5011931;28;51025;-55
2021/12/16 04:54:14;;;;;;;;;11.75;9.50;;;;;20.15;41.31;103177.66;5013038;28;51046;-56
2021/12/16 04:56:40;;;;;;;;;10.25;8.50;;;;;20.14;41.48;103177.84;5010280;28;51041;-56
2021/12/16 04:59:08;;;;;;;;;9.25;7.50;;;;;20.14;41.63;103181.44;4998788;28;51947;-56
2021/12/16 05:01:45;;;;;;;;;10.00;9.75;;;;;20.13;41.31;103182.47;5012512;28;51170;-56
2021/12/16 05:04:11;;;;;;;;;10.25;9.75;;;;;20.13;41.37;103188.00;5005011;28;51233;-56
2021/12/16 05:06:38;;;;;;;;;11.25;8.00;;;;;20.11;41.56;103187.28;5009128;28;51163;-56
2021/12/16 05:09:04;;;;;;;;;13.75;10.75;;;;;20.12;41.49;103190.91;5019940;28;51271;-56
2021/12/16 05:11:33;;;;;;;;;7.50;7.50;;;;;20.10;41.53;103185.53;5007823;28;51414;-56
2021/12/16 05:13:59;;;;;;;;;9.00;9.00;;;;;20.11;41.36;103186.41;5001611;28;51053;-55
2021/12/16 05:16:24;;;;;;;;;9.25;9.25;;;;;20.10;41.46;103188.28;5011430;28;51049;-56
2021/12/16 05:18:52;;;;;;;;;14.00;10.00;;;;;20.10;41.42;103185.53;5006590;28;51786;-56
2021/12/16 05:21:58;;;;;;;;;7.75;6.50;;;;;20.09;41.44;103183.81;5004183;28;51473;-55
2021/12/16 05:24:25;;;;;;;;;9.00;9.00;;;;;20.09;41.29;103182.97;5004004;28;51620;-56
2021/12/16 05:26:55;;;;;;;;;7.25;7.00;;;;;20.08;41.69;103184.84;5012140;28;51316;-56
2021/12/16 05:29:21;;;;;;;;;11.00;10.00;;;;;20.09;41.34;103196.72;5007576;28;51975;-57
2021/12/16 05:31:47;;;;;;;;;8.50;8.50;;;;;20.08;41.61;103198.59;5012457;28;51121;-56
2021/12/16 05:34:12;;;;;;;;;12.50;9.50;;;;;20.08;41.45;103195.84;5007880;28;51264;-56
2021/12/16 05:36:39;;;;;;;;;11.00;8.75;;;;;20.07;41.50;103194.13;5007599;28;51152;-56
2021/12/16 05:39:06;;;;;;;;;11.00;7.75;;;;;20.06;41.79;103200.66;4999896;28;51430;-54
2021/12/16 05:41:32;;;;;;;;;10.00;8.00;;;;;20.07;41.61;103196.03;5013005;28;51980;-57
2021/12/16 05:43:57;;;;;;;;;9.00;9.00;;;;;20.05;41.48;103203.59;5004641;28;51126;-55
2021/12/16 05:46:24;;;;;;;;;11.00;9.00;;;;;20.06;41.34;103203.41;5034814;28;51016;-56
2021/12/16 05:48:52;;;;;;;;;6.75;3.75;;;;;20.04;41.45;103210.97;5006212;28;50994;-56
2021/12/16 05:51:23;;;;;;;;;11.00;8.75;;;;;20.04;41.13;103210.09;5014052;28;51080;-57
2021/12/16 05:53:51;;;;;;;;;10.00;6.75;;;;;20.04;41.58;103219.22;4999721;28;51134;-56
2021/12/16 05:56:17;;;;;;;;;10.00;8.75;;;;;20.04;41.45;103216.47;5002048;28;51200;-56
2021/12/16 05:58:43;;;;;;;;;8.00;8.00;;;;;20.04;41.69;103219.22;5010770;28;51086;-55
2021/12/16 06:01:19;;;;;;;;;6.75;6.00;;;;;20.04;41.47;103221.13;5013038;28;51094;-56
2021/12/16 06:03:44;;;;;;;;;11.00;9.00;;;;;20.02;41.42;103224.03;5004328;28;51136;-57
2021/12/16 06:06:10;;;;;;;;;12.25;11.25;;;;;20.02;41.73;103221.28;5003202;28;51203;-56
2021/12/16 06:08:36;;;;;;;;;8.00;8.00;;;;;20.02;41.64;103224.03;5012357;28;51939;-56
2021/12/16 06:13:43;;;;;;;;;8.00;8.00;;;;;20.01;41.55;103232.44;5009288;28;51369;-55
2021/12/16 06:29:30;;;;;;;;;27.50;23.00;;;;;19.88;40.53;103233.72;5004766;28;51729;-55
2021/12/16 06:31:56;;;;;;;;;27.25;26.25;;;;;19.86;40.49;103232.16;5008967;28;51324;-56
2021/12/16 06:34:22;;;;;;;;;28.75;26.00;;;;;19.82;40.50;103233.53;5011525;28;51287;-55
2021/12/16 06:36:47;;;;;;;;;36.25;31.50;;;;;19.79;40.90;103239.31;5009928;28;51175;-54
2021/12/16 06:39:13;;;;;;;;;29.75;27.25;;;;;19.77;40.60;103228.47;5004946;28;51419;-55
2021/12/16 06:41:38;;;;;;;;;31.25;26.25;;;;;19.78;40.66;103229.34;5004281;28;51179;-54
2021/12/16 06:44:14;;;;;;;;;21.75;20.75;;;;;19.83;41.08;103227.00;5003421;28;51157;-55
2021/12/16 06:46:42;;;;;;;;;25.75;20.50;;;;;19.90;41.13;103230.81;5001855;28;51303;-55
2021/12/16 06:49:10;;;;;;;;;17.50;17.50;;;;;19.99;41.00;103234.47;4997974;28;52575;-54
2021/12/16 06:51:51;;;;;;;;;20.75;18.75;;;;;20.08;41.29;103233.50;5001002;28;51393;-55
2021/12/16 06:54:31;;;;;;;;;21.50;16.00;;;;;20.18;41.17;103243.38;5002053;28;51193;-55
2021/12/16 06:59:28;;;;;;;;;16.75;16.25;;;;;20.34;41.40;103245.38;4999364;28;51344;-54
2021/12/16 07:02:16;;;;;;;;;14.00;13.00;;;;;20.42;41.24;103242.69;5007098;28;51126;-55
2021/12/16 07:04:43;;;;;;;;;18.50;18.25;;;;;20.51;41.20;103239.97;5010198;28;51185;-56
2021/12/16 07:07:12;;;;;;;;;19.00;17.25;;;;;20.56;41.33;103238.47;4999600;28;51224;-56
2021/12/16 07:09:38;;;;;;;;;15.25;13.75;;;;;20.61;41.91;103243.47;5012265;28;51789;-54
2021/12/16 07:12:07;;;;;;;;;17.50;14.25;;;;;20.67;42.08;103251.06;5009381;28;51139;-56
2021/12/16 07:14:36;;;;;;;;;13.50;11.25;;;;;20.72;42.37;103248.66;5017763;28;51204;-54
2021/12/16 07:17:10;;;;;;;;;13.50;13.00;;;;;20.78;42.05;103249.91;5009598;28;51292;-55
2021/12/16 07:19:36;;;;;;;;;10.50;10.00;;;;;20.84;41.88;103261.13;5018037;28;51812;-56
2021/12/16 07:22:03;;;;;;;;;14.25;12.50;;;;;20.89;41.94;103255.97;5016378;28;51758;-54
2021/12/16 07:24:28;;;;;;;;;13.75;10.75;;;;;20.94;41.84;103259.06;5021249;28;51083;-55
2021/12/16 07:26:54;;;;;;;;;11.25;10.50;;;;;20.95;42.13;103248.94;5011723;28;52894;-56
2021/12/16 07:29:19;;;;;;;;;12.75;10.25;;;;;20.91;42.18;103251.16;5016896;28;52289;-57
2021/12/16 07:31:44;;;;;;;;;15.50;12.25;;;;;20.87;41.73;103258.03;5018472;28;51152;-57
2021/12/16 07:34:11;;;;;;;;;16.00;13.75;;;;;20.87;42.00;103254.41;5013879;28;51247;-55
2021/12/16 07:36:39;;;;;;;;;15.50;13.25;;;;;20.85;41.91;103262.00;5016278;28;51165;-56
2021/12/16 07:39:11;;;;;;;;;15.00;10.25;;;;;20.86;42.10;103261.81;5017527;28;52709;-53
2021/12/16 07:41:39;;;;;;;;;12.75;12.50;;;;;20.91;42.26;103264.06;5012278;28;51192;-52
2021/12/16 07:44:12;;;;;;;;;12.50;10.00;;;;;20.98;42.12;103273.41;5022401;28;51200;-55
2021/12/16 07:46:48;;;;;;;;;13.50;10.00;;;;;21.06;42.21;103272.56;5002822;28;51237;-54
2021/12/16 07:49:23;;;;;;;;;17.25;15.25;;;;;21.10;42.06;103263.78;5013796;28;51734;-55
2021/12/16 07:51:50;;;;;;;;;12.75;11.25;;;;;21.14;41.72;103267.91;4999079;28;51533;-53
2021/12/16 07:54:17;;;;;;;;;14.50;13.00;;;;;21.16;42.16;103274.16;4997913;28;51150;-55
2021/12/16 07:56:46;;;;;;;;;13.75;12.75;;;;;21.16;42.15;103271.38;5001399;28;51019;-52
2021/12/16 07:59:11;;;;;;;;;16.50;12.75;;;;;21.16;42.41;103267.78;5019939;28;52140;-54
2021/12/16 08:01:39;;;;;;;;;14.50;13.25;;;;;21.14;41.93;103269.81;5001062;28;51138;-56
2021/12/16 08:04:06;;;;;;;;;14.75;14.75;;;;;21.11;41.71;103276.53;5011605;28;51088;-56
2021/12/16 08:06:33;;;;;;;;;18.50;13.25;;;;;21.07;41.86;103279.81;4996647;28;51195;-56
2021/12/16 08:09:08;;;;;;;;;15.75;15.00;;;;;21.02;42.04;103283.91;4996283;28;52647;-53
2021/12/16 08:11:36;;;;;;;;;15.00;14.75;;;;;21.00;41.73;103285.97;4997555;28;51065;-55
2021/12/16 08:14:03;;;;;;;;;17.25;15.25;;;;;21.00;41.34;103293.38;4997639;28;51108;-55
2021/12/16 08:16:30;;;;;;;;;19.50;16.75;;;;;20.99;41.56;103289.75;5011222;28;51377;-55
2021/12/16 08:18:55;;;;;;;;;17.25;15.50;;;;;20.96;41.65;103289.25;5016561;28;51370;-55
2021/12/16 08:21:24;;;;;;;;;15.00;14.25;;;;;20.93;41.50;103295.06;5016161;28;51068;-56
2021/12/16 08:23:50;;;;;;;;;15.75;12.75;;;;;20.91;41.35;103288.88;5015986;28;51009;-56
2021/12/16 08:26:17;;;;;;;;;21.00;17.00;;;;;20.91;41.74;103284.22;5021069;28;51501;-56
2021/12/16 08:28:43;;;;;;;;;17.00;15.25;;;;;20.88;41.78;103286.44;5036758;28;51289;-56
2021/12/16 08:31:10;;;;;;;;;16.00;14.50;;;;;20.84;41.29;103294.19;5036627;28;51018;-56
2021/12/16 08:33:35;;;;;;;;;17.25;14.50;;;;;20.85;41.45;103295.06;5036877;28;51070;-55
2021/12/16 08:36:01;;;;;;;;;18.00;14.00;;;;;20.85;41.52;103293.16;5036976;28;51070;-56
2021/12/16 08:38:27;;;;;;;;;15.75;14.75;;;;;20.82;41.65;103298.13;5036363;28;58505;-55
2021/12/16 08:40:58;;;;;;;;;18.00;17.00;;;;;20.80;41.39;103300.19;5036867;28;51268;-56
2021/12/16 08:43:24;;;;;;;;;14.50;14.00;;;;;20.79;41.44;103298.47;5036645;28;51120;-55
2021/12/16 08:45:49;;;;;;;;;17.75;15.50;;;;;20.78;41.93;103300.34;5036807;28;51038;-56
2021/12/16 08:48:15;;;;;;;;;19.00;16.75;;;;;20.75;41.70;103303.44;5036275;28;52956;-55
2021/12/16 08:50:45;;;;;;;;;17.00;15.75;;;;;20.73;41.75;103313.75;5036552;28;51152;-55
2021/12/16 08:53:11;;;;;;;;;15.25;13.75;;;;;20.71;41.92;103310.28;5036518;28;50952;-55
2021/12/16 08:55:44;;;;;;;;;14.50;14.25;;;;;20.71;41.91;103308.41;5036595;28;51037;-53
2021/12/16 08:58:09;;;;;;;;;16.00;16.00;;;;;20.71;41.46;103313.91;5035774;28;51088;-54
2021/12/16 09:00:47;;;;;;;;;19.25;14.00;;;;;20.73;41.67;103305.47;5036090;28;51097;-54
2021/12/16 09:03:13;;;;;;;;;14.00;12.00;;;;;20.72;41.51;103307.38;5001066;28;51360;-54
2021/12/16 09:05:39;;;;;;;;;19.75;14.50;;;;;20.71;41.99;103313.03;5013930;28;51063;-56
2021/12/16 09:08:05;;;;;;;;;16.75;13.50;;;;;20.68;41.91;103310.63;5020402;28;52065;-54
2021/12/16 09:10:33;;;;;;;;;15.75;13.75;;;;;20.65;41.75;103320.09;5023928;28;51061;-53
2021/12/16 09:13:03;;;;;;;;;21.25;16.25;;;;;20.65;41.95;103313.72;5015020;28;51006;-57
2021/12/16 09:15:41;;;;;;;;;16.75;12.00;;;;;20.68;42.64;103317.00;5014607;28;52438;-55
2021/12/16 09:18:07;;;;;;;;;12.00;12.00;;;;;20.76;42.32;103321.69;5015054;28;51161;-52
2021/12/16 09:20:34;;;;;;;;;14.50;13.00;;;;;20.86;41.82;103324.31;5015468;28;51101;-54
2021/12/16 09:23:00;;;;;;;;;14.25;11.00;;;;;20.93;41.84;103317.97;5015932;28;51206;-54
2021/12/16 09:25:27;;;;;;;;;11.75;11.00;;;;;21.01;41.89;103330.91;5016258;28;51343;-55
2021/12/16 09:27:53;;;;;;;;;13.75;11.75;;;;;21.09;42.22;103333.72;5032351;28;51123;-53
2021/12/16 09:30:22;;;;;;;;;14.50;13.00;;;;;21.16;41.92;103328.41;5035667;28;51406;-53
2021/12/16 09:32:49;;;;;;;;;14.25;12.00;;;;;21.24;41.65;103337.53;5035982;28;51121;-54
2021/12/16 09:35:15;;;;;;;;;13.00;12.25;;;;;21.29;41.45;103335.19;5035878;28;51245;-55
2021/12/16 09:37:40;;;;;;;;;14.00;10.50;;;;;21.35;41.67;103332.78;5035628;28;51543;-54
2021/12/16 09:40:13;;;;;;;;;10.00;10.00;;;;;21.37;41.58;103339.00;5035012;28;51079;-49
2021/12/16 09:42:39;;;;;;;;;13.50;12.50;;;;;21.35;41.50;103347.44;5035310;28;51067;-54
2021/12/16 09:45:08;;;;;;;;;15.50;11.25;;;;;21.32;41.66;103339.50;5035470;28;51244;-54
2021/12/16 09:47:34;;;;;;;;;12.50;11.50;;;;;21.28;41.70;103351.91;5035188;28;51055;-53
2021/12/16 09:50:00;;;;;;;;;10.75;10.75;;;;;21.24;42.17;103354.09;5034932;28;51270;-54
2021/12/16 09:52:25;;;;;;;;;14.00;13.75;;;;;21.21;42.07;103359.94;5034494;28;51120;-54
2021/12/16 09:54:51;;;;;;;;;15.00;13.75;;;;;21.20;41.78;103362.88;5034388;28;51009;-55
2021/12/16 09:57:17;;;;;;;;;14.00;13.50;;;;;21.25;41.32;103374.25;5034873;28;51730;-50
2021/12/16 09:59:43;;;;;;;;;12.50;11.25;;;;;21.30;41.65;103364.50;5035294;28;51300;-54
2021/12/16 10:02:17;;;;;;;;;14.00;13.00;;;;;21.38;41.61;103362.78;5035065;28;51196;-53
2021/12/16 10:04:44;;;;;;;;;19.75;14.25;;;;;21.45;41.45;103355.56;5010671;28;51384;-53
2021/12/16 10:07:14;;;;;;;;;14.75;11.75;;;;;21.49;41.41;103359.72;5020527;28;51282;-53
2021/12/16 10:09:41;;;;;;;;;16.25;15.50;;;;;21.49;41.74;103366.09;4999866;28;51529;-54
2021/12/16 10:12:12;;;;;;;;;18.25;13.50;;;;;21.48;41.48;103366.28;5016442;28;51130;-54
2021/12/16 10:14:59;;;;;;;;;16.00;15.50;;;;;21.44;41.39;103356.59;5014965;28;51113;-55
2021/12/16 10:17:32;;;;;;;;;15.75;15.00;;;;;21.38;41.96;103357.28;5012474;28;51403;-57
2021/12/16 10:20:06;;;;;;;;;15.25;13.50;;;;;21.33;41.61;103355.88;5009749;28;52174;-57
2021/12/16 10:22:39;;;;;;;;;15.75;14.25;;;;;21.30;41.90;103353.47;5006395;28;52019;-54
2021/12/16 10:25:16;;;;;;;;;11.75;9.50;;;;;21.38;41.82;103360.03;4998506;28;51195;-55
2021/12/16 10:28:17;;;;;;;;;12.50;12.50;;;;;21.47;41.79;103359.03;5006189;28;51127;-54
2021/12/16 10:31:12;;;;;;;;;14.75;11.25;;;;;21.56;42.21;103346.97;4998584;28;51419;-54
2021/12/16 10:33:41;;;;;;;;;16.00;11.50;;;;;21.57;42.19;103352.34;5013794;28;51152;-55
2021/12/16 10:36:12;;;;;;;;;10.00;10.00;;;;;21.57;41.72;103354.19;4999786;28;51061;-55
2021/12/16 10:38:42;;;;;;;;;11.50;10.50;;;;;21.52;41.78;103354.72;4996384;28;50957;-55
2021/12/16 10:41:11;;;;;;;;;15.25;10.50;;;;;21.51;42.29;103360.41;5001062;28;51230;-54
2021/12/16 10:43:41;;;;;;;;;15.00;11.25;;;;;21.47;41.92;103359.88;5001997;28;51225;-55
2021/12/16 10:46:20;;;;;;;;;8.75;7.00;;;;;21.43;41.97;103357.63;4996358;28;51851;-56
2021/12/16 10:48:49;;;;;;;;;13.00;13.00;;;;;21.38;41.94;103355.38;4996942;28;51229;-53
2021/12/16 10:51:20;;;;;;;;;12.00;9.50;;;;;21.40;42.35;103358.84;4996025;28;51479;-55
2021/12/16 10:54:04;;;;;;;;;13.50;11.25;;;;;21.47;41.81;103354.38;5004859;28;51283;-55
2021/12/16 10:56:29;;;;;;;;;10.25;9.75;;;;;21.56;41.97;103356.09;5008483;28;51262;-55
2021/12/16 10:59:03;;;;;;;;;9.50;9.50;;;;;21.64;42.02;103357.16;5004609;28;51388;-54
2021/12/16 11:01:40;;;;;;;;;9.25;9.00;;;;;21.69;41.79;103358.38;5000917;28;51723;-55
2021/12/16 11:04:12;;;;;;;;;11.00;9.50;;;;;21.69;41.68;103346.50;5002910;28;51181;-52
2021/12/16 11:06:41;;;;;;;;;10.00;10.00;;;;;21.66;42.17;103352.31;5009522;28;51183;-56
2021/12/16 11:09:24;;;;;;;;;12.00;12.00;;;;;21.61;42.54;103350.94;5004939;28;51261;-53
2021/12/16 11:12:09;;;;;;;;;14.75;9.25;;;;;21.55;41.91;103354.38;5016653;28;52420;-55
2021/12/16 11:14:36;;;;;;;;;9.25;7.75;;;;;21.50;41.95;103359.53;5010659;28;51313;-53
2021/12/16 11:17:06;;;;;;;;;9.00;9.00;;;;;21.45;41.95;103353.66;5012068;28;51357;-54
2021/12/16 11:19:48;;;;;;;;;10.50;10.50;;;;;21.46;41.86;103354.50;5008678;28;52122;-51
2021/12/16 11:22:19;;;;;;;;;12.75;12.00;;;;;21.53;42.28;103359.19;5011478;28;51100;-52
2021/12/16 11:24:45;;;;;;;;;9.50;9.00;;;;;21.61;42.09;103353.72;5010381;28;51361;-55
2021/12/16 11:27:25;;;;;;;;;10.25;9.00;;;;;21.70;41.77;103353.72;5007511;28;51203;-53
2021/12/16 11:29:52;;;;;;;;;8.75;8.75;;;;;21.73;42.01;103357.00;5012211;28;51509;-54
2021/12/16 11:32:39;;;;;;;;;13.75;9.75;;;;;21.73;42.26;103356.13;5011386;28;51557;-55
2021/12/16 11:35:32;;;;;;;;;9.50;8.00;;;;;21.69;42.00;103357.53;5006624;28;51275;-53
2021/12/16 11:38:20;;;;;;;;;10.75;8.25;;;;;21.64;42.32;103358.00;5012654;28;51360;-54
2021/12/16 11:40:49;;;;;;;;;8.00;5.75;;;;;21.59;42.50;103352.16;5000140;28;51819;-52
2021/12/16 11:43:14;;;;;;;;;9.25;9.25;;;;;21.54;42.31;103349.03;4999913;28;51242;-57
2021/12/16 11:45:40;;;;;;;;;11.25;8.00;;;;;21.49;41.82;103349.56;5008522;28;51074;-53
2021/12/16 11:48:07;;;;;;;;;12.25;11.00;;;;;21.49;41.66;103354.19;5025726;28;51163;-53
2021/12/16 11:50:40;;;;;;;;;12.50;10.00;;;;;21.51;41.63;103347.47;5027282;28;51209;-55
2021/12/16 11:53:09;;;;;;;;;10.50;10.50;;;;;21.59;41.50;103346.63;5029340;28;51319;-53
2021/12/16 11:55:37;;;;;;;;;14.00;10.25;;;;;21.67;41.51;103346.63;5026832;28;51594;-53
2021/12/16 11:58:04;;;;;;;;;10.75;9.75;;;;;21.73;41.93;103351.47;5017161;28;51056;-53
2021/12/16 12:00:40;;;;;;;;;10.75;10.25;;;;;21.78;41.89;103357.38;5026947;28;52024;-51
2021/12/16 12:03:09;;;;;;;;;8.75;8.50;;;;;21.76;42.01;103340.09;5022733;28;51389;-55
2021/12/16 12:05:49;;;;;;;;;10.25;8.00;;;;;21.72;41.65;103341.47;5020853;28;51194;-50
2021/12/16 12:08:27;;;;;;;;;9.50;9.50;;;;;21.67;41.79;103343.88;5014283;28;51442;-50
2021/12/16 12:11:06;;;;;;;;;10.50;9.00;;;;;21.63;42.31;103345.25;5010219;28;51776;-54
2021/12/16 12:13:42;;;;;;;;;12.00;11.25;;;;;21.59;41.96;103346.63;5012852;28;51113;-53
2021/12/16 12:16:16;;;;;;;;;12.25;10.00;;;;;21.55;42.52;103348.00;5010942;28;51008;-54
2021/12/16 12:18:54;;;;;;;;;9.25;9.00;;;;;21.53;41.98;103341.78;5015886;28;51126;-54
2021/12/16 12:21:48;;;;;;;;;9.50;9.50;;;;;21.60;42.32;103340.94;4997676;28;50958;-53
2021/12/16 12:24:26;;;;;;;;;8.50;8.50;;;;;21.68;41.65;103329.06;5012633;28;50934;-53
2021/12/16 12:26:57;;;;;;;;;12.00;9.00;;;;;21.77;41.67;103330.78;5025091;28;51084;-53
2021/12/16 12:29:28;;;;;;;;;10.50;7.50;;;;;21.79;41.59;103325.13;5036646;28;51052;-53
2021/12/16 12:32:00;;;;;;;;;10.00;7.25;;;;;21.77;41.90;103327.16;5042813;28;53334;-54
2021/12/16 12:34:26;;;;;;;;;9.25;8.00;;;;;21.74;42.27;103333.88;4996457;28;51142;-52
2021/12/16 12:36:54;;;;;;;;;8.50;8.00;;;;;21.70;42.34;103328.91;4996622;28;51039;-55
2021/12/16 12:39:24;;;;;;;;;9.25;9.25;;;;;21.65;41.90;103329.38;5000260;28;51444;-54
2021/12/16 12:41:49;;;;;;;;;8.50;6.25;;;;;21.60;42.53;103332.69;5016877;28;51455;-51
2021/12/16 12:44:15;;;;;;;;;11.00;10.50;;;;;21.58;42.39;103322.84;5015208;28;51071;-52
2021/12/16 12:46:42;;;;;;;;;10.00;10.00;;;;;21.62;42.09;103324.22;4995834;28;50951;-53
2021/12/16 12:49:12;;;;;;;;;14.50;10.00;;;;;21.68;41.85;103318.03;4999176;28;51285;-56
2021/12/16 12:51:41;;;;;;;;;8.00;7.25;;;;;21.75;42.27;103309.91;5013123;28;52204;-54
2021/12/16 12:54:22;;;;;;;;;10.50;9.50;;;;;21.81;41.68;103318.38;5011238;28;51247;-56
2021/12/16 12:56:48;;;;;;;;;10.25;8.75;;;;;21.81;41.91;103312.88;5020879;28;51147;-52
2021/12/16 12:59:15;;;;;;;;;7.75;7.75;;;;;21.80;42.06;103321.31;5014748;28;51237;-55
2021/12/16 13:01:54;;;;;;;;;6.50;6.50;;;;;21.77;42.27;103311.47;5007500;28;51437;-53
2021/12/16 13:04:31;;;;;;;;;11.75;7.75;;;;;21.73;42.32;103310.09;5013160;28;51383;-56
2021/12/16 13:07:06;;;;;;;;;12.25;9.75;;;;;21.71;42.53;103317.69;5009001;28;51246;-56
2021/12/16 13:09:48;;;;;;;;;10.00;8.00;;;;;21.67;42.72;103319.03;5015992;28;51269;-54
2021/12/16 13:13:23;;;;;;;;;10.25;10.25;;;;;21.65;41.79;103312.84;5007448;28;51839;-56
2021/12/16 13:15:49;;;;;;;;;9.75;8.00;;;;;21.71;41.84;103306.66;5004977;28;51591;-54
2021/12/16 13:25:01;;;;;;;;;8.00;7.75;;;;;21.86;42.32;103298.53;5004166;28;51126;-55
2021/12/16 13:27:39;;;;;;;;;9.00;9.00;;;;;21.83;42.44;103307.16;5012859;28;51301;-54
2021/12/16 13:32:45;;;;;;;;;6.25;5.75;;;;;21.77;42.64;103294.91;4993908;28;51261;-56
2021/12/16 13:37:57;;;;;;;;;10.25;7.50;;;;;21.70;42.18;103290.28;5008356;28;51639;-56
2021/12/16 13:40:26;;;;;;;;;8.50;7.50;;;;;21.67;42.22;103287.84;5012327;28;51658;-52
2021/12/16 13:43:13;;;;;;;;;7.25;7.25;;;;;21.68;42.73;103287.69;5010028;28;51232;-54
2021/12/16 13:46:10;;;;;;;;;8.00;8.00;;;;;21.74;42.31;103294.41;5012427;28;53181;-56
2021/12/16 13:49:03;;;;;;;;;8.25;8.25;;;;;21.81;42.59;103287.16;5004138;28;51326;-55
2021/12/16 14:03:12;;;;;;;;;12.25;10.00;;;;;21.71;42.54;103295.63;5004178;28;51394;-55
2021/12/16 14:05:55;;;;;;;;;9.25;7.00;;;;;21.67;42.98;103294.22;5003998;28;51550;-54
2021/12/16 14:08:53;;;;;;;;;8.00;7.75;;;;;21.65;42.56;103293.53;4999572;28;51209;-53
2021/12/16 14:15:27;;;;;;;;;7.00;6.50;;;;;21.78;42.87;103290.25;5007365;28;51343;-54
2021/12/16 14:18:14;;;;;;;;;7.00;7.00;;;;;21.84;43.05;103295.09;5003321;28;51205;-53
2021/12/16 14:23:40;;;;;;;;;8.25;6.75;;;;;21.83;42.85;103293.38;5005986;28;50966;-54
2021/12/16 14:26:21;;;;;;;;;9.00;8.00;;;;;21.77;42.68;103289.41;5001113;28;51236;-53
2021/12/16 14:32:09;;;;;;;;;8.75;8.50;;;;;21.72;42.56;103291.81;5006605;28;50975;-55
2021/12/16 14:45:34;;;;;;;;;7.25;7.25;;;;;21.84;42.59;103300.63;4997240;28;51114;-52
2021/12/16 14:51:01;;;;;;;;;11.75;8.75;;;;;21.82;43.00;103303.56;4998557;28;51285;-55
2021/12/16 14:53:34;;;;;;;;;7.25;6.00;;;;;21.79;42.82;103301.16;4999070;28;51815;-52
2021/12/16 14:56:12;;;;;;;;;8.00;7.50;;;;;21.76;43.16;103304.22;5006507;28;51093;-53
2021/12/16 14:58:41;;;;;;;;;9.75;8.75;;;;;21.73;42.57;103303.72;5003671;28;51161;-55
2021/12/16 15:01:14;;;;;;;;;9.00;7.50;;;;;21.70;43.07;103302.16;4997243;28;51391;-54
2021/12/16 15:03:42;;;;;;;;;8.25;8.25;;;;;21.67;42.43;103307.16;4997827;28;52023;-56
2021/12/16 15:06:19;;;;;;;;;8.75;8.25;;;;;21.69;42.97;103302.34;5005312;28;51327;-53
2021/12/16 15:08:54;;;;;;;;;8.25;8.00;;;;;21.74;43.18;103311.81;5011225;28;51180;-54
2021/12/16 15:11:46;;;;;;;;;7.00;7.00;;;;;21.83;42.95;103301.66;5001173;28;51145;-58